DLH5LL EDDF-OMDB
Flight info
| Callsign | DLH5LL |
|---|---|
| Flight time | N/A |
| Altitude | 37000 |
| Route | CINDY8S CINDY Z74 LAMPU DCT NOMBO Y161 MAH DCT LATLO DCT OBEDI DCT BABOL DCT NISVA DCT USALI DCT OTKOK DCT RODIP DCT BELGI DCT KETEK/N0474F390 UT38 VESAR L620 BALMA UR655 LEBOR R655 KTN R785 RASLI P559 TRF R23 NEVOL N318 TAMRO T503 KSA M321 RESAL T533 RAPMA DCT KUVSO DCT KATIT DCT PEKEM M628 RIGIL G783 ELUDA/N0493F350 G783 ASPED Q308 KIPOK/N0495F340 Q568 IMPED |
| Aircraft | A343/H-SDE2E3FGHIJ4J5M1RWXY/LB1D1 |
Departure
| Time | N/A |
|---|---|
| Airport | Frankfurt Main Airport (EDDF) |
Arrival
| Time | 2026-05-05 15:55 |
|---|---|
| Airport | Dubai International Airport (OMDB) |
| Time | Latitude | Longitude | Altitude | Speed | Heading |
|---|---|---|---|---|---|
| 2026-05-05 15:39 | 25.20351 | 55.76347 | 14220 ft | 319 kts | 299° |
| 2026-05-05 15:39 | 25.21448 | 55.74223 | 13968 ft | 316 kts | 300° |
| 2026-05-05 15:39 | 25.22552 | 55.72149 | 13835 ft | 309 kts | 301° |
| 2026-05-05 15:40 | 25.23641 | 55.70151 | 13474 ft | 299 kts | 301° |
| 2026-05-05 15:40 | 25.24714 | 55.68204 | 12769 ft | 296 kts | 301° |
| 2026-05-05 15:40 | 25.25784 | 55.66272 | 12074 ft | 293 kts | 301° |
| 2026-05-05 15:40 | 25.26849 | 55.64368 | 11421 ft | 289 kts | 301° |
| 2026-05-05 15:41 | 25.27905 | 55.62491 | 10780 ft | 286 kts | 301° |
| 2026-05-05 15:41 | 25.28947 | 55.60641 | 10140 ft | 283 kts | 301° |
| 2026-05-05 15:41 | 25.29987 | 55.58807 | 9514 ft | 280 kts | 301° |
| 2026-05-05 15:41 | 25.31044 | 55.56957 | 8694 ft | 299 kts | 301° |
| 2026-05-05 15:42 | 25.31800 | 55.55621 | 8365 ft | 319 kts | 301° |
| 2026-05-05 15:42 | 25.32986 | 55.53501 | 8076 ft | 326 kts | 301° |
| 2026-05-05 15:42 | 25.34179 | 55.51361 | 8024 ft | 327 kts | 301° |
| 2026-05-05 15:42 | 25.35746 | 55.48533 | 8020 ft | 325 kts | 301° |
| 2026-05-05 15:43 | 25.36712 | 55.46288 | 7947 ft | 324 kts | 285° |
| 2026-05-05 15:43 | 25.36910 | 55.43831 | 7532 ft | 322 kts | 263° |
| 2026-05-05 15:43 | 25.36227 | 55.41502 | 7104 ft | 320 kts | 240° |
| 2026-05-05 15:43 | 25.34783 | 55.39656 | 6688 ft | 318 kts | 219° |
| 2026-05-05 15:44 | 25.33578 | 55.38692 | 6432 ft | 316 kts | 214° |
| 2026-05-05 15:44 | 25.31738 | 55.37388 | 6098 ft | 313 kts | 212° |
| 2026-05-05 15:44 | 25.29892 | 55.36112 | 6002 ft | 314 kts | 212° |
| 2026-05-05 15:44 | 25.28046 | 55.34837 | 5986 ft | 309 kts | 212° |
| 2026-05-05 15:45 | 25.26272 | 55.33611 | 5986 ft | 292 kts | 212° |
| 2026-05-05 15:45 | 25.24580 | 55.32477 | 5983 ft | 277 kts | 208° |
| 2026-05-05 15:45 | 25.22811 | 55.31953 | 5984 ft | 263 kts | 180° |
| 2026-05-05 15:45 | 25.21057 | 55.32398 | 5997 ft | 260 kts | 152° |
| 2026-05-05 15:46 | 25.19690 | 55.33683 | 6001 ft | 260 kts | 128° |
| 2026-05-05 15:46 | 25.18639 | 55.35310 | 5983 ft | 260 kts | 123° |
| 2026-05-05 15:46 | 25.17676 | 55.36946 | 5984 ft | 247 kts | 122° |
| 2026-05-05 15:46 | 25.16761 | 55.38516 | 6000 ft | 241 kts | 122° |
| 2026-05-05 15:47 | 25.15854 | 55.40076 | 5985 ft | 241 kts | 122° |
| 2026-05-05 15:47 | 25.14952 | 55.41628 | 5988 ft | 240 kts | 122° |
| 2026-05-05 15:47 | 25.14052 | 55.43182 | 6005 ft | 240 kts | 122° |
| 2026-05-05 15:47 | 25.13151 | 55.44735 | 5991 ft | 240 kts | 122° |
| 2026-05-05 15:48 | 25.12249 | 55.46290 | 6006 ft | 240 kts | 122° |
| 2026-05-05 15:48 | 25.11346 | 55.47842 | 5954 ft | 240 kts | 122° |
| 2026-05-05 15:48 | 25.10451 | 55.49382 | 5660 ft | 238 kts | 122° |
| 2026-05-05 15:48 | 25.09555 | 55.50911 | 5181 ft | 236 kts | 122° |
| 2026-05-05 15:49 | 25.08662 | 55.52425 | 4717 ft | 234 kts | 122° |
| 2026-05-05 15:49 | 25.07785 | 55.53917 | 4244 ft | 230 kts | 118° |
| 2026-05-05 15:49 | 25.07381 | 55.55587 | 3757 ft | 226 kts | 87° |
| 2026-05-05 15:49 | 25.07656 | 55.57278 | 3317 ft | 223 kts | 74° |
| 2026-05-05 15:50 | 25.08425 | 55.58725 | 3058 ft | 223 kts | 43° |
| 2026-05-05 15:50 | 25.09818 | 55.59474 | 3015 ft | 228 kts | 10° |
| 2026-05-05 15:50 | 25.11385 | 55.59290 | 3005 ft | 231 kts | 341° |
| 2026-05-05 15:50 | 25.12832 | 55.58511 | 3003 ft | 233 kts | 328° |
| 2026-05-05 15:51 | 25.13987 | 55.57260 | 3004 ft | 234 kts | 304° |
| 2026-05-05 15:51 | 25.14806 | 55.55700 | 3004 ft | 236 kts | 299° |
| 2026-05-05 15:51 | 25.15573 | 55.54088 | 2895 ft | 238 kts | 298° |
| 2026-05-05 15:51 | 25.16359 | 55.52503 | 2584 ft | 240 kts | 301° |
| 2026-05-05 15:52 | 25.17256 | 55.50943 | 2256 ft | 241 kts | 303° |
| 2026-05-05 15:52 | 25.18108 | 55.49404 | 1930 ft | 226 kts | 303° |
| 2026-05-05 15:52 | 25.18876 | 55.47992 | 1693 ft | 203 kts | 304° |
| 2026-05-05 15:52 | 25.19578 | 55.46723 | 1428 ft | 184 kts | 304° |
| 2026-05-05 15:53 | 25.20219 | 55.45569 | 1191 ft | 169 kts | 304° |
| 2026-05-05 15:53 | 25.20800 | 55.44517 | 994 ft | 154 kts | 304° |
| 2026-05-05 15:53 | 25.21341 | 55.43537 | 794 ft | 145 kts | 303° |
| 2026-05-05 15:53 | 25.21838 | 55.42632 | 635 ft | 133 kts | 304° |
| 2026-05-05 15:54 | 25.22319 | 55.41766 | 490 ft | 133 kts | 304° |
| 2026-05-05 15:54 | 25.22809 | 55.40882 | 367 ft | 136 kts | 303° |
| 2026-05-05 15:54 | 25.23313 | 55.39985 | 204 ft | 136 kts | 303° |
| 2026-05-05 15:54 | 25.23786 | 55.39128 | 47 ft | 126 kts | 303° |
| 2026-05-05 15:55 | 25.24183 | 55.38420 | 35 ft | 83 kts | 301° |
| 2026-05-05 15:55 | 25.24387 | 55.38048 | 35 ft | 42 kts | 302° |
| 2026-05-05 15:55 | 25.24529 | 55.37798 | 33 ft | 36 kts | 302° |
| 2026-05-05 15:55 | 25.24648 | 55.37580 | 33 ft | 31 kts | 301° |
| 2026-05-05 15:56 | 25.24748 | 55.37382 | 33 ft | 29 kts | 292° |
| 2026-05-05 15:56 | 25.24785 | 55.37189 | 33 ft | 25 kts | 272° |
| 2026-05-05 15:56 | 25.24788 | 55.37087 | 31 ft | 1 kts | 272° |
| 2026-05-05 15:56 | 25.24789 | 55.37077 | 30 ft | 2 kts | 272° |
| 2026-05-05 15:57 | 25.24789 | 55.37049 | 30 ft | 6 kts | 272° |
| 2026-05-05 15:57 | 25.24793 | 55.36993 | 29 ft | 9 kts | 278° |
| 2026-05-05 15:57 | 25.24815 | 55.36922 | 28 ft | 10 kts | 295° |
| 2026-05-05 15:57 | 25.24845 | 55.36844 | 28 ft | 12 kts | 291° |
| 2026-05-05 15:58 | 25.24871 | 55.36753 | 27 ft | 13 kts | 285° |
| 2026-05-05 15:58 | 25.24902 | 55.36650 | 27 ft | 15 kts | 297° |
| 2026-05-05 15:58 | 25.24956 | 55.36551 | 27 ft | 16 kts | 301° |
| 2026-05-05 15:58 | 25.25014 | 55.36446 | 27 ft | 16 kts | 302° |
| 2026-05-05 15:59 | 25.25077 | 55.36337 | 27 ft | 17 kts | 303° |
| 2026-05-05 15:59 | 25.25141 | 55.36223 | 27 ft | 18 kts | 301° |
| 2026-05-05 15:59 | 25.25207 | 55.36104 | 27 ft | 18 kts | 301° |
| 2026-05-05 15:59 | 25.25276 | 55.35981 | 27 ft | 19 kts | 301° |
| 2026-05-05 16:00 | 25.25346 | 55.35853 | 28 ft | 20 kts | 301° |
| 2026-05-05 16:00 | 25.25403 | 55.35757 | 28 ft | 13 kts | 303° |
| 2026-05-05 16:00 | 25.25454 | 55.35666 | 27 ft | 15 kts | 302° |
| 2026-05-05 16:00 | 25.25510 | 55.35567 | 27 ft | 16 kts | 302° |
| 2026-05-05 16:01 | 25.25572 | 55.35458 | 30 ft | 17 kts | 302° |
| 2026-05-05 16:01 | 25.25639 | 55.35341 | 30 ft | 18 kts | 302° |
| 2026-05-05 16:01 | 25.25706 | 55.35217 | 30 ft | 19 kts | 301° |
| 2026-05-05 16:01 | 25.25772 | 55.35099 | 30 ft | 14 kts | 302° |
| 2026-05-05 16:02 | 25.25819 | 55.35012 | 27 ft | 13 kts | 298° |
| 2026-05-05 16:02 | 25.25857 | 55.34916 | 29 ft | 14 kts | 282° |
| 2026-05-05 16:02 | 25.25862 | 55.34805 | 25 ft | 15 kts | 271° |
| 2026-05-05 16:02 | 25.25892 | 55.34701 | 29 ft | 12 kts | 300° |
| 2026-05-05 16:03 | 25.25920 | 55.34641 | 27 ft | 6 kts | 286° |
| 2026-05-05 16:03 | 25.25906 | 55.34609 | 31 ft | 5 kts | 227° |
| 2026-05-05 16:03 | 25.25875 | 55.34585 | 30 ft | 5 kts | 213° |
| 2026-05-05 16:03 | 25.25864 | 55.34577 | 28 ft | 3 kts | 212° |
| 2026-05-05 16:04 | 25.25850 | 55.34568 | 28 ft | 0 kts | 212° |